sensor_id;sensor_type;location;lat;lon;timestamp;P1;durP1;ratioP1;P2;durP2;ratioP2
22164;SDS011;11248;52.512;13.520;2022-08-25T00:00:30;4.65;;;3.30;;
22164;SDS011;11248;52.512;13.520;2022-08-25T00:02:56;5.38;;;3.83;;
22164;SDS011;11248;52.512;13.520;2022-08-25T00:05:23;5.75;;;3.28;;
22164;SDS011;11248;52.512;13.520;2022-08-25T00:07:49;5.88;;;3.30;;
22164;SDS011;11248;52.512;13.520;2022-08-25T00:10:15;6.63;;;3.97;;
22164;SDS011;11248;52.512;13.520;2022-08-25T00:12:41;4.25;;;3.38;;
22164;SDS011;11248;52.512;13.520;2022-08-25T00:15:07;3.50;;;3.20;;
22164;SDS011;11248;52.512;13.520;2022-08-25T00:17:34;4.88;;;3.22;;
22164;SDS011;11248;52.512;13.520;2022-08-25T00:20:00;6.10;;;3.63;;
22164;SDS011;11248;52.512;13.520;2022-08-25T00:22:25;3.80;;;3.40;;
22164;SDS011;11248;52.512;13.520;2022-08-25T00:24:52;5.03;;;3.70;;
22164;SDS011;11248;52.512;13.520;2022-08-25T00:27:18;4.68;;;3.40;;
22164;SDS011;11248;52.512;13.520;2022-08-25T00:29:44;5.97;;;3.75;;
22164;SDS011;11248;52.512;13.520;2022-08-25T00:32:10;7.15;;;3.92;;
22164;SDS011;11248;52.512;13.520;2022-08-25T00:34:37;4.18;;;3.17;;
22164;SDS011;11248;52.512;13.520;2022-08-25T00:37:04;4.10;;;3.45;;
22164;SDS011;11248;52.512;13.520;2022-08-25T00:39:31;5.25;;;3.55;;
22164;SDS011;11248;52.512;13.520;2022-08-25T00:41:57;5.40;;;3.42;;
22164;SDS011;11248;52.512;13.520;2022-08-25T00:44:24;5.32;;;3.60;;
22164;SDS011;11248;52.512;13.520;2022-08-25T00:46:52;5.68;;;3.60;;
22164;SDS011;11248;52.512;13.520;2022-08-25T00:49:20;4.22;;;3.80;;
22164;SDS011;11248;52.512;13.520;2022-08-25T00:51:50;3.78;;;3.42;;
22164;SDS011;11248;52.512;13.520;2022-08-25T00:54:21;4.93;;;3.72;;
22164;SDS011;11248;52.512;13.520;2022-08-25T00:56:48;7.93;;;3.83;;
22164;SDS011;11248;52.512;13.520;2022-08-25T00:59:16;6.18;;;4.05;;
22164;SDS011;11248;52.512;13.520;2022-08-25T01:01:43;8.85;;;4.03;;
22164;SDS011;11248;52.512;13.520;2022-08-25T01:04:09;4.30;;;3.42;;
22164;SDS011;11248;52.512;13.520;2022-08-25T01:06:35;4.80;;;3.60;;
22164;SDS011;11248;52.512;13.520;2022-08-25T01:09:03;6.40;;;3.83;;
22164;SDS011;11248;52.512;13.520;2022-08-25T01:11:29;4.93;;;3.55;;
22164;SDS011;11248;52.512;13.520;2022-08-25T01:13:55;3.92;;;3.00;;
22164;SDS011;11248;52.512;13.520;2022-08-25T01:16:21;5.25;;;4.15;;
22164;SDS011;11248;52.512;13.520;2022-08-25T01:18:52;4.75;;;3.20;;
22164;SDS011;11248;52.512;13.520;2022-08-25T01:21:20;4.78;;;3.28;;
22164;SDS011;11248;52.512;13.520;2022-08-25T01:23:47;5.38;;;3.63;;
22164;SDS011;11248;52.512;13.520;2022-08-25T01:26:15;6.25;;;4.20;;
22164;SDS011;11248;52.512;13.520;2022-08-25T01:28:43;7.70;;;4.10;;
22164;SDS011;11248;52.512;13.520;2022-08-25T01:31:27;6.78;;;4.20;;
22164;SDS011;11248;52.512;13.520;2022-08-25T01:33:54;4.80;;;3.67;;
22164;SDS011;11248;52.512;13.520;2022-08-25T01:36:20;5.95;;;3.78;;
22164;SDS011;11248;52.512;13.520;2022-08-25T01:38:46;5.13;;;3.78;;
22164;SDS011;11248;52.512;13.520;2022-08-25T01:41:14;5.05;;;3.70;;
22164;SDS011;11248;52.512;13.520;2022-08-25T01:43:40;6.47;;;4.18;;
22164;SDS011;11248;52.512;13.520;2022-08-25T01:46:06;4.18;;;3.70;;
22164;SDS011;11248;52.512;13.520;2022-08-25T01:48:32;5.32;;;3.72;;
22164;SDS011;11248;52.512;13.520;2022-08-25T01:50:58;6.47;;;4.03;;
22164;SDS011;11248;52.512;13.520;2022-08-25T01:53:27;5.75;;;4.10;;
22164;SDS011;11248;52.512;13.520;2022-08-25T01:55:54;9.02;;;4.63;;
22164;SDS011;11248;52.512;13.520;2022-08-25T01:58:35;5.95;;;3.95;;
22164;SDS011;11248;52.512;13.520;2022-08-25T02:01:04;7.45;;;4.05;;
22164;SDS011;11248;52.512;13.520;2022-08-25T02:03:31;4.82;;;4.18;;
22164;SDS011;11248;52.512;13.520;2022-08-25T02:05:57;6.30;;;4.00;;
22164;SDS011;11248;52.512;13.520;2022-08-25T02:08:24;5.90;;;4.28;;
22164;SDS011;11248;52.512;13.520;2022-08-25T02:10:50;6.35;;;4.45;;
22164;SDS011;11248;52.512;13.520;2022-08-25T02:13:17;6.75;;;5.00;;
22164;SDS011;11248;52.512;13.520;2022-08-25T02:15:45;6.25;;;4.65;;
22164;SDS011;11248;52.512;13.520;2022-08-25T02:18:12;6.47;;;4.28;;
22164;SDS011;11248;52.512;13.520;2022-08-25T02:20:38;5.85;;;4.75;;
22164;SDS011;11248;52.512;13.520;2022-08-25T02:23:04;8.27;;;4.68;;
22164;SDS011;11248;52.512;13.520;2022-08-25T02:25:30;5.80;;;4.72;;
22164;SDS011;11248;52.512;13.520;2022-08-25T02:27:57;7.95;;;5.07;;
22164;SDS011;11248;52.512;13.520;2022-08-25T02:30:23;9.02;;;4.80;;
22164;SDS011;11248;52.512;13.520;2022-08-25T02:32:49;6.30;;;4.80;;
22164;SDS011;11248;52.512;13.520;2022-08-25T02:35:16;7.95;;;5.18;;
22164;SDS011;11248;52.512;13.520;2022-08-25T02:37:42;5.65;;;4.82;;
22164;SDS011;11248;52.512;13.520;2022-08-25T02:40:08;7.68;;;4.85;;
22164;SDS011;11248;52.512;13.520;2022-08-25T02:42:34;9.75;;;5.00;;
22164;SDS011;11248;52.512;13.520;2022-08-25T02:45:00;7.38;;;5.10;;
22164;SDS011;11248;52.512;13.520;2022-08-25T02:47:26;8.00;;;4.97;;
22164;SDS011;11248;52.512;13.520;2022-08-25T02:49:52;6.50;;;4.90;;
22164;SDS011;11248;52.512;13.520;2022-08-25T02:52:17;8.13;;;5.63;;
22164;SDS011;11248;52.512;13.520;2022-08-25T02:54:44;7.40;;;4.90;;
22164;SDS011;11248;52.512;13.520;2022-08-25T02:57:10;6.45;;;4.88;;
22164;SDS011;11248;52.512;13.520;2022-08-25T02:59:36;5.78;;;4.90;;
22164;SDS011;11248;52.512;13.520;2022-08-25T03:02:03;6.28;;;4.88;;
22164;SDS011;11248;52.512;13.520;2022-08-25T03:04:29;5.68;;;4.70;;
22164;SDS011;11248;52.512;13.520;2022-08-25T03:06:55;7.18;;;5.45;;
22164;SDS011;11248;52.512;13.520;2022-08-25T03:09:21;7.70;;;5.50;;
22164;SDS011;11248;52.512;13.520;2022-08-25T03:11:47;7.50;;;5.35;;
22164;SDS011;11248;52.512;13.520;2022-08-25T03:14:13;8.18;;;5.05;;
22164;SDS011;11248;52.512;13.520;2022-08-25T03:16:39;8.50;;;5.10;;
22164;SDS011;11248;52.512;13.520;2022-08-25T03:19:06;7.40;;;5.07;;
22164;SDS011;11248;52.512;13.520;2022-08-25T03:21:32;7.05;;;4.82;;
22164;SDS011;11248;52.512;13.520;2022-08-25T03:23:58;9.85;;;5.18;;
22164;SDS011;11248;52.512;13.520;2022-08-25T03:26:24;5.95;;;4.60;;
22164;SDS011;11248;52.512;13.520;2022-08-25T03:29:09;7.65;;;4.78;;
22164;SDS011;11248;52.512;13.520;2022-08-25T03:31:35;9.25;;;5.45;;
22164;SDS011;11248;52.512;13.520;2022-08-25T03:34:02;7.28;;;5.00;;
22164;SDS011;11248;52.512;13.520;2022-08-25T03:36:28;11.18;;;5.70;;
22164;SDS011;11248;52.512;13.520;2022-08-25T03:38:54;6.55;;;5.18;;
22164;SDS011;11248;52.512;13.520;2022-08-25T03:41:21;7.25;;;5.18;;
22164;SDS011;11248;52.512;13.520;2022-08-25T03:43:47;11.13;;;5.78;;
22164;SDS011;11248;52.512;13.520;2022-08-25T03:46:17;8.73;;;5.80;;
22164;SDS011;11248;52.512;13.520;2022-08-25T03:48:44;8.80;;;5.65;;
22164;SDS011;11248;52.512;13.520;2022-08-25T03:51:10;9.55;;;5.97;;
22164;SDS011;11248;52.512;13.520;2022-08-25T03:53:36;7.40;;;4.97;;
22164;SDS011;11248;52.512;13.520;2022-08-25T03:56:02;8.95;;;5.53;;
22164;SDS011;11248;52.512;13.520;2022-08-25T03:58:28;7.68;;;4.95;;
22164;SDS011;11248;52.512;13.520;2022-08-25T04:00:54;7.07;;;5.55;;
22164;SDS011;11248;52.512;13.520;2022-08-25T04:03:24;10.73;;;5.78;;
22164;SDS011;11248;52.512;13.520;2022-08-25T04:05:49;7.97;;;5.10;;
22164;SDS011;11248;52.512;13.520;2022-08-25T04:08:16;7.13;;;4.78;;
22164;SDS011;11248;52.512;13.520;2022-08-25T04:10:42;8.57;;;5.57;;
22164;SDS011;11248;52.512;13.520;2022-08-25T04:13:08;8.60;;;5.55;;
22164;SDS011;11248;52.512;13.520;2022-08-25T04:15:35;8.13;;;6.18;;
22164;SDS011;11248;52.512;13.520;2022-08-25T04:18:02;7.88;;;5.57;;
22164;SDS011;11248;52.512;13.520;2022-08-25T04:20:28;8.80;;;5.45;;
22164;SDS011;11248;52.512;13.520;2022-08-25T04:22:54;6.72;;;5.38;;
22164;SDS011;11248;52.512;13.520;2022-08-25T04:25:24;6.88;;;5.75;;
22164;SDS011;11248;52.512;13.520;2022-08-25T04:27:50;11.95;;;6.15;;
22164;SDS011;11248;52.512;13.520;2022-08-25T04:30:16;8.63;;;6.03;;
22164;SDS011;11248;52.512;13.520;2022-08-25T04:32:42;10.80;;;6.25;;
22164;SDS011;11248;52.512;13.520;2022-08-25T04:35:08;8.27;;;5.82;;
22164;SDS011;11248;52.512;13.520;2022-08-25T04:37:34;9.73;;;6.50;;
22164;SDS011;11248;52.512;13.520;2022-08-25T04:40:00;7.82;;;6.20;;
22164;SDS011;11248;52.512;13.520;2022-08-25T04:42:26;8.45;;;6.05;;
22164;SDS011;11248;52.512;13.520;2022-08-25T04:44:52;8.50;;;5.93;;
22164;SDS011;11248;52.512;13.520;2022-08-25T04:47:18;7.22;;;6.43;;
22164;SDS011;11248;52.512;13.520;2022-08-25T04:49:44;10.07;;;6.50;;
22164;SDS011;11248;52.512;13.520;2022-08-25T04:52:10;9.75;;;6.88;;
22164;SDS011;11248;52.512;13.520;2022-08-25T04:54:36;9.35;;;6.03;;
22164;SDS011;11248;52.512;13.520;2022-08-25T04:57:02;10.90;;;6.65;;
22164;SDS011;11248;52.512;13.520;2022-08-25T04:59:28;10.50;;;6.85;;
22164;SDS011;11248;52.512;13.520;2022-08-25T05:01:54;8.98;;;6.68;;
22164;SDS011;11248;52.512;13.520;2022-08-25T05:04:21;6.60;;;5.30;;
22164;SDS011;11248;52.512;13.520;2022-08-25T05:06:47;6.68;;;5.35;;
22164;SDS011;11248;52.512;13.520;2022-08-25T05:09:13;7.43;;;5.38;;
22164;SDS011;11248;52.512;13.520;2022-08-25T05:11:39;8.98;;;6.55;;
22164;SDS011;11248;52.512;13.520;2022-08-25T05:14:04;8.90;;;6.40;;
22164;SDS011;11248;52.512;13.520;2022-08-25T05:16:35;8.98;;;5.78;;
22164;SDS011;11248;52.512;13.520;2022-08-25T05:19:01;8.52;;;6.00;;
22164;SDS011;11248;52.512;13.520;2022-08-25T05:21:28;7.60;;;6.43;;
22164;SDS011;11248;52.512;13.520;2022-08-25T05:23:56;9.82;;;5.65;;
22164;SDS011;11248;52.512;13.520;2022-08-25T05:26:22;8.45;;;6.40;;
22164;SDS011;11248;52.512;13.520;2022-08-25T05:28:49;7.85;;;6.55;;
22164;SDS011;11248;52.512;13.520;2022-08-25T05:31:16;8.90;;;6.20;;
22164;SDS011;11248;52.512;13.520;2022-08-25T05:33:42;10.10;;;7.03;;
22164;SDS011;11248;52.512;13.520;2022-08-25T05:36:08;8.40;;;5.72;;
22164;SDS011;11248;52.512;13.520;2022-08-25T05:38:36;9.35;;;6.25;;
22164;SDS011;11248;52.512;13.520;2022-08-25T05:41:12;8.45;;;6.22;;
22164;SDS011;11248;52.512;13.520;2022-08-25T05:43:40;9.68;;;6.60;;
22164;SDS011;11248;52.512;13.520;2022-08-25T05:46:07;9.38;;;6.63;;
22164;SDS011;11248;52.512;13.520;2022-08-25T05:48:33;9.55;;;6.72;;
22164;SDS011;11248;52.512;13.520;2022-08-25T05:51:00;7.85;;;6.53;;
22164;SDS011;11248;52.512;13.520;2022-08-25T05:53:26;9.32;;;7.18;;
22164;SDS011;11248;52.512;13.520;2022-08-25T05:55:53;8.63;;;7.43;;
22164;SDS011;11248;52.512;13.520;2022-08-25T05:58:20;11.65;;;7.60;;
22164;SDS011;11248;52.512;13.520;2022-08-25T06:00:46;12.75;;;8.05;;
22164;SDS011;11248;52.512;13.520;2022-08-25T06:03:12;10.52;;;7.05;;
22164;SDS011;11248;52.512;13.520;2022-08-25T06:05:38;9.88;;;7.07;;
22164;SDS011;11248;52.512;13.520;2022-08-25T06:08:05;11.02;;;7.90;;
22164;SDS011;11248;52.512;13.520;2022-08-25T06:10:31;11.88;;;9.43;;
22164;SDS011;11248;52.512;13.520;2022-08-25T06:12:57;10.68;;;8.07;;
22164;SDS011;11248;52.512;13.520;2022-08-25T06:15:23;15.55;;;8.82;;
22164;SDS011;11248;52.512;13.520;2022-08-25T06:17:49;14.43;;;8.70;;
22164;SDS011;11248;52.512;13.520;2022-08-25T06:20:17;14.40;;;8.23;;
22164;SDS011;11248;52.512;13.520;2022-08-25T06:22:44;11.93;;;8.30;;
22164;SDS011;11248;52.512;13.520;2022-08-25T06:25:11;15.32;;;10.13;;
22164;SDS011;11248;52.512;13.520;2022-08-25T06:27:38;10.63;;;8.05;;
22164;SDS011;11248;52.512;13.520;2022-08-25T06:30:05;14.38;;;10.00;;
22164;SDS011;11248;52.512;13.520;2022-08-25T06:32:35;12.15;;;8.35;;
22164;SDS011;11248;52.512;13.520;2022-08-25T06:35:06;12.52;;;7.80;;
22164;SDS011;11248;52.512;13.520;2022-08-25T06:37:32;11.23;;;8.27;;
22164;SDS011;11248;52.512;13.520;2022-08-25T06:39:59;13.30;;;8.90;;
22164;SDS011;11248;52.512;13.520;2022-08-25T06:42:25;13.60;;;8.63;;
22164;SDS011;11248;52.512;13.520;2022-08-25T06:44:51;12.27;;;8.13;;
22164;SDS011;11248;52.512;13.520;2022-08-25T06:47:16;11.27;;;8.32;;
22164;SDS011;11248;52.512;13.520;2022-08-25T06:49:43;13.10;;;9.40;;
22164;SDS011;11248;52.512;13.520;2022-08-25T06:52:09;13.98;;;8.35;;
22164;SDS011;11248;52.512;13.520;2022-08-25T06:54:35;14.35;;;10.02;;
22164;SDS011;11248;52.512;13.520;2022-08-25T06:57:02;12.48;;;7.95;;
22164;SDS011;11248;52.512;13.520;2022-08-25T06:59:28;15.00;;;8.70;;
22164;SDS011;11248;52.512;13.520;2022-08-25T07:01:54;15.25;;;8.50;;
22164;SDS011;11248;52.512;13.520;2022-08-25T07:04:19;15.52;;;8.82;;
22164;SDS011;11248;52.512;13.520;2022-08-25T07:06:45;18.90;;;10.23;;
22164;SDS011;11248;52.512;13.520;2022-08-25T07:09:12;11.35;;;8.15;;
22164;SDS011;11248;52.512;13.520;2022-08-25T07:11:38;11.15;;;7.97;;
22164;SDS011;11248;52.512;13.520;2022-08-25T07:14:05;15.73;;;10.18;;
22164;SDS011;11248;52.512;13.520;2022-08-25T07:16:32;17.27;;;9.48;;
22164;SDS011;11248;52.512;13.520;2022-08-25T07:18:58;16.55;;;9.40;;
22164;SDS011;11248;52.512;13.520;2022-08-25T07:21:25;13.40;;;9.50;;
22164;SDS011;11248;52.512;13.520;2022-08-25T07:23:51;17.20;;;10.07;;
22164;SDS011;11248;52.512;13.520;2022-08-25T07:26:19;21.23;;;11.02;;
22164;SDS011;11248;52.512;13.520;2022-08-25T07:28:45;19.85;;;10.93;;
22164;SDS011;11248;52.512;13.520;2022-08-25T07:31:11;17.60;;;10.40;;
22164;SDS011;11248;52.512;13.520;2022-08-25T07:33:37;15.43;;;9.65;;
22164;SDS011;11248;52.512;13.520;2022-08-25T07:36:23;16.48;;;9.55;;
22164;SDS011;11248;52.512;13.520;2022-08-25T07:38:49;16.05;;;9.68;;
22164;SDS011;11248;52.512;13.520;2022-08-25T07:41:15;16.90;;;10.45;;
22164;SDS011;11248;52.512;13.520;2022-08-25T07:43:41;21.08;;;11.02;;
22164;SDS011;11248;52.512;13.520;2022-08-25T07:46:08;16.85;;;9.38;;
22164;SDS011;11248;52.512;13.520;2022-08-25T07:48:34;13.70;;;9.32;;
22164;SDS011;11248;52.512;13.520;2022-08-25T07:51:05;14.27;;;8.55;;
22164;SDS011;11248;52.512;13.520;2022-08-25T07:53:31;13.70;;;9.65;;
22164;SDS011;11248;52.512;13.520;2022-08-25T07:55:57;14.65;;;9.10;;
22164;SDS011;11248;52.512;13.520;2022-08-25T07:58:23;15.02;;;10.25;;
22164;SDS011;11248;52.512;13.520;2022-08-25T08:00:49;17.55;;;9.82;;
22164;SDS011;11248;52.512;13.520;2022-08-25T08:03:17;15.30;;;10.10;;
22164;SDS011;11248;52.512;13.520;2022-08-25T08:05:43;15.02;;;9.27;;
22164;SDS011;11248;52.512;13.520;2022-08-25T08:08:09;17.95;;;9.70;;
22164;SDS011;11248;52.512;13.520;2022-08-25T08:10:37;13.40;;;9.65;;
22164;SDS011;11248;52.512;13.520;2022-08-25T08:13:04;14.05;;;9.40;;
22164;SDS011;11248;52.512;13.520;2022-08-25T08:15:29;19.42;;;10.95;;
22164;SDS011;11248;52.512;13.520;2022-08-25T08:17:59;20.23;;;10.55;;
22164;SDS011;11248;52.512;13.520;2022-08-25T08:20:25;15.02;;;9.80;;
22164;SDS011;11248;52.512;13.520;2022-08-25T08:22:51;15.52;;;9.55;;
22164;SDS011;11248;52.512;13.520;2022-08-25T08:25:17;17.20;;;9.75;;
22164;SDS011;11248;52.512;13.520;2022-08-25T08:27:43;13.27;;;9.10;;
22164;SDS011;11248;52.512;13.520;2022-08-25T08:30:10;13.45;;;9.60;;
22164;SDS011;11248;52.512;13.520;2022-08-25T08:32:36;15.18;;;8.75;;
22164;SDS011;11248;52.512;13.520;2022-08-25T08:35:03;16.55;;;8.82;;
22164;SDS011;11248;52.512;13.520;2022-08-25T08:37:29;12.18;;;8.38;;
22164;SDS011;11248;52.512;13.520;2022-08-25T08:39:55;14.25;;;8.98;;
22164;SDS011;11248;52.512;13.520;2022-08-25T08:42:25;9.93;;;7.65;;
22164;SDS011;11248;52.512;13.520;2022-08-25T08:45:43;12.50;;;8.85;;
22164;SDS011;11248;52.512;13.520;2022-08-25T08:47:47;10.23;;;6.85;;
22164;SDS011;11248;52.512;13.520;2022-08-25T08:53:05;14.85;;;8.25;;
22164;SDS011;11248;52.512;13.520;2022-08-25T08:55:43;14.07;;;8.40;;
22164;SDS011;11248;52.512;13.520;2022-08-25T08:58:16;8.65;;;6.40;;
22164;SDS011;11248;52.512;13.520;2022-08-25T09:00:44;11.70;;;6.68;;
22164;SDS011;11248;52.512;13.520;2022-08-25T09:03:13;11.20;;;6.55;;
22164;SDS011;11248;52.512;13.520;2022-08-25T09:05:42;8.30;;;5.80;;
22164;SDS011;11248;52.512;13.520;2022-08-25T09:08:11;8.52;;;6.70;;
22164;SDS011;11248;52.512;13.520;2022-08-25T09:10:49;8.10;;;6.32;;
22164;SDS011;11248;52.512;13.520;2022-08-25T09:13:34;11.00;;;6.00;;
22164;SDS011;11248;52.512;13.520;2022-08-25T09:16:04;7.75;;;5.78;;
22164;SDS011;11248;52.512;13.520;2022-08-25T09:26:24;9.00;;;5.72;;
22164;SDS011;11248;52.512;13.520;2022-08-25T09:29:00;9.35;;;5.97;;
22164;SDS011;11248;52.512;13.520;2022-08-25T09:31:37;9.10;;;6.57;;
22164;SDS011;11248;52.512;13.520;2022-08-25T09:34:06;9.27;;;5.75;;
22164;SDS011;11248;52.512;13.520;2022-08-25T09:36:32;6.05;;;5.03;;
22164;SDS011;11248;52.512;13.520;2022-08-25T09:38:58;12.38;;;5.35;;
22164;SDS011;11248;52.512;13.520;2022-08-25T09:41:35;8.23;;;5.85;;
22164;SDS011;11248;52.512;13.520;2022-08-25T09:44:04;6.43;;;5.07;;
22164;SDS011;11248;52.512;13.520;2022-08-25T09:46:30;7.93;;;6.13;;
22164;SDS011;11248;52.512;13.520;2022-08-25T09:48:57;8.50;;;5.97;;
22164;SDS011;11248;52.512;13.520;2022-08-25T09:51:35;7.43;;;5.68;;
22164;SDS011;11248;52.512;13.520;2022-08-25T09:59:21;11.52;;;5.88;;
22164;SDS011;11248;52.512;13.520;2022-08-25T10:01:48;7.50;;;4.95;;
22164;SDS011;11248;52.512;13.520;2022-08-25T10:04:15;6.88;;;5.10;;
22164;SDS011;11248;52.512;13.520;2022-08-25T10:06:49;7.45;;;5.10;;
22164;SDS011;11248;52.512;13.520;2022-08-25T10:09:24;8.07;;;4.85;;
22164;SDS011;11248;52.512;13.520;2022-08-25T10:11:53;7.32;;;4.90;;
22164;SDS011;11248;52.512;13.520;2022-08-25T10:14:35;5.65;;;4.70;;
22164;SDS011;11248;52.512;13.520;2022-08-25T10:19:50;8.93;;;4.53;;
22164;SDS011;11248;52.512;13.520;2022-08-25T10:22:23;6.32;;;4.22;;
22164;SDS011;11248;52.512;13.520;2022-08-25T10:24:56;5.45;;;4.28;;
22164;SDS011;11248;52.512;13.520;2022-08-25T10:30:01;5.60;;;4.10;;
22164;SDS011;11248;52.512;13.520;2022-08-25T10:32:48;6.72;;;4.35;;
22164;SDS011;11248;52.512;13.520;2022-08-25T10:36:03;7.85;;;4.40;;
22164;SDS011;11248;52.512;13.520;2022-08-25T10:40:36;3.90;;;3.40;;
22164;SDS011;11248;52.512;13.520;2022-08-25T10:43:06;7.82;;;4.60;;
22164;SDS011;11248;52.512;13.520;2022-08-25T10:45:41;9.80;;;3.90;;
22164;SDS011;11248;52.512;13.520;2022-08-25T10:53:13;9.50;;;4.60;;
22164;SDS011;11248;52.512;13.520;2022-08-25T10:55:47;8.95;;;4.45;;
22164;SDS011;11248;52.512;13.520;2022-08-25T11:01:09;10.02;;;4.45;;
22164;SDS011;11248;52.512;13.520;2022-08-25T11:03:46;6.97;;;4.38;;
22164;SDS011;11248;52.512;13.520;2022-08-25T11:06:19;4.38;;;3.72;;
22164;SDS011;11248;52.512;13.520;2022-08-25T11:08:53;8.35;;;4.07;;
22164;SDS011;11248;52.512;13.520;2022-08-25T11:14:00;7.53;;;4.45;;
22164;SDS011;11248;52.512;13.520;2022-08-25T11:16:33;6.50;;;4.07;;
22164;SDS011;11248;52.512;13.520;2022-08-25T11:21:32;7.25;;;4.20;;
22164;SDS011;11248;52.512;13.520;2022-08-25T11:24:06;4.80;;;3.58;;
22164;SDS011;11248;52.512;13.520;2022-08-25T11:26:36;8.40;;;3.83;;
22164;SDS011;11248;52.512;13.520;2022-08-25T11:29:05;13.20;;;5.03;;
22164;SDS011;11248;52.512;13.520;2022-08-25T11:31:38;6.78;;;3.50;;
22164;SDS011;11248;52.512;13.520;2022-08-25T11:34:07;9.88;;;3.97;;
22164;SDS011;11248;52.512;13.520;2022-08-25T11:36:35;6.63;;;3.70;;
22164;SDS011;11248;52.512;13.520;2022-08-25T11:39:08;5.63;;;3.70;;
22164;SDS011;11248;52.512;13.520;2022-08-25T11:44:35;6.68;;;3.45;;
22164;SDS011;11248;52.512;13.520;2022-08-25T11:47:10;5.25;;;3.55;;
22164;SDS011;11248;52.512;13.520;2022-08-25T11:49:43;6.10;;;3.58;;
22164;SDS011;11248;52.512;13.520;2022-08-25T11:52:45;5.70;;;3.55;;
22164;SDS011;11248;52.512;13.520;2022-08-25T11:57:35;8.07;;;4.05;;
22164;SDS011;11248;52.512;13.520;2022-08-25T12:02:56;8.73;;;4.15;;
22164;SDS011;11248;52.512;13.520;2022-08-25T12:13:38;6.82;;;3.63;;
22164;SDS011;11248;52.512;13.520;2022-08-25T12:16:05;8.02;;;3.95;;
22164;SDS011;11248;52.512;13.520;2022-08-25T12:23:26;7.78;;;3.60;;
22164;SDS011;11248;52.512;13.520;2022-08-25T12:25:52;9.77;;;3.33;;
22164;SDS011;11248;52.512;13.520;2022-08-25T12:31:09;5.22;;;3.63;;
22164;SDS011;11248;52.512;13.520;2022-08-25T12:36:26;7.88;;;3.42;;
22164;SDS011;11248;52.512;13.520;2022-08-25T12:38:53;5.57;;;3.13;;
22164;SDS011;11248;52.512;13.520;2022-08-25T12:41:20;8.82;;;3.35;;
22164;SDS011;11248;52.512;13.520;2022-08-25T12:43:47;4.47;;;2.85;;
22164;SDS011;11248;52.512;13.520;2022-08-25T12:48:52;5.88;;;3.17;;
22164;SDS011;11248;52.512;13.520;2022-08-25T12:51:20;6.00;;;3.10;;
22164;SDS011;11248;52.512;13.520;2022-08-25T12:53:50;6.93;;;3.10;;
22164;SDS011;11248;52.512;13.520;2022-08-25T12:56:19;5.57;;;2.80;;
22164;SDS011;11248;52.512;13.520;2022-08-25T13:04:18;6.07;;;3.15;;
22164;SDS011;11248;52.512;13.520;2022-08-25T13:06:53;6.88;;;3.20;;
22164;SDS011;11248;52.512;13.520;2022-08-25T13:12:22;3.80;;;2.55;;
22164;SDS011;11248;52.512;13.520;2022-08-25T13:14:52;7.00;;;2.55;;
22164;SDS011;11248;52.512;13.520;2022-08-25T13:17:32;5.50;;;2.60;;
22164;SDS011;11248;52.512;13.520;2022-08-25T13:22:39;5.82;;;2.90;;
22164;SDS011;11248;52.512;13.520;2022-08-25T13:25:13;4.20;;;2.55;;
22164;SDS011;11248;52.512;13.520;2022-08-25T13:27:39;5.10;;;2.65;;
22164;SDS011;11248;52.512;13.520;2022-08-25T13:30:05;4.72;;;2.20;;
22164;SDS011;11248;52.512;13.520;2022-08-25T13:32:34;5.72;;;2.70;;
22164;SDS011;11248;52.512;13.520;2022-08-25T13:35:11;6.18;;;3.05;;
22164;SDS011;11248;52.512;13.520;2022-08-25T13:37:38;6.63;;;2.38;;
22164;SDS011;11248;52.512;13.520;2022-08-25T13:40:09;6.47;;;2.60;;
22164;SDS011;11248;52.512;13.520;2022-08-25T13:42:35;7.90;;;2.95;;
22164;SDS011;11248;52.512;13.520;2022-08-25T13:45:03;8.25;;;3.28;;
22164;SDS011;11248;52.512;13.520;2022-08-25T13:47:37;5.72;;;2.80;;
22164;SDS011;11248;52.512;13.520;2022-08-25T13:52:48;5.07;;;3.10;;
22164;SDS011;11248;52.512;13.520;2022-08-25T13:58:00;6.55;;;3.33;;
22164;SDS011;11248;52.512;13.520;2022-08-25T14:00:39;10.55;;;3.75;;
22164;SDS011;11248;52.512;13.520;2022-08-25T14:03:06;5.90;;;2.95;;
22164;SDS011;11248;52.512;13.520;2022-08-25T14:05:40;6.05;;;3.03;;
22164;SDS011;11248;52.512;13.520;2022-08-25T14:08:07;9.35;;;3.10;;
22164;SDS011;11248;52.512;13.520;2022-08-25T14:11:00;8.57;;;3.00;;
22164;SDS011;11248;52.512;13.520;2022-08-25T14:15:52;7.78;;;3.03;;
22164;SDS011;11248;52.512;13.520;2022-08-25T14:18:19;6.22;;;3.08;;
22164;SDS011;11248;52.512;13.520;2022-08-25T14:20:50;7.10;;;3.35;;
22164;SDS011;11248;52.512;13.520;2022-08-25T14:23:21;7.90;;;2.95;;
22164;SDS011;11248;52.512;13.520;2022-08-25T14:25:49;9.43;;;2.88;;
22164;SDS011;11248;52.512;13.520;2022-08-25T14:28:17;6.18;;;3.08;;
22164;SDS011;11248;52.512;13.520;2022-08-25T14:31:03;7.47;;;2.90;;
22164;SDS011;11248;52.512;13.520;2022-08-25T14:33:37;5.43;;;2.65;;
22164;SDS011;11248;52.512;13.520;2022-08-25T14:36:04;5.38;;;2.53;;
22164;SDS011;11248;52.512;13.520;2022-08-25T14:38:31;11.10;;;3.30;;
22164;SDS011;11248;52.512;13.520;2022-08-25T14:40:57;7.95;;;3.13;;
22164;SDS011;11248;52.512;13.520;2022-08-25T14:43:23;7.90;;;3.10;;
22164;SDS011;11248;52.512;13.520;2022-08-25T14:45:49;10.50;;;3.25;;
22164;SDS011;11248;52.512;13.520;2022-08-25T14:48:21;9.23;;;3.10;;
22164;SDS011;11248;52.512;13.520;2022-08-25T14:50:49;5.95;;;3.17;;
22164;SDS011;11248;52.512;13.520;2022-08-25T14:53:15;7.43;;;2.72;;
22164;SDS011;11248;52.512;13.520;2022-08-25T14:55:40;5.15;;;2.40;;
22164;SDS011;11248;52.512;13.520;2022-08-25T14:58:07;4.82;;;2.70;;
22164;SDS011;11248;52.512;13.520;2022-08-25T15:00:36;7.45;;;2.70;;
22164;SDS011;11248;52.512;13.520;2022-08-25T15:03:04;5.78;;;3.40;;
22164;SDS011;11248;52.512;13.520;2022-08-25T15:05:30;7.85;;;3.38;;
22164;SDS011;11248;52.512;13.520;2022-08-25T15:07:56;6.47;;;2.92;;
22164;SDS011;11248;52.512;13.520;2022-08-25T15:10:41;8.35;;;3.00;;
22164;SDS011;11248;52.512;13.520;2022-08-25T15:13:07;6.80;;;2.70;;
22164;SDS011;11248;52.512;13.520;2022-08-25T15:15:38;6.22;;;2.78;;
22164;SDS011;11248;52.512;13.520;2022-08-25T15:18:04;4.45;;;2.47;;
22164;SDS011;11248;52.512;13.520;2022-08-25T15:20:30;6.28;;;2.88;;
22164;SDS011;11248;52.512;13.520;2022-08-25T15:22:56;7.30;;;3.00;;
22164;SDS011;11248;52.512;13.520;2022-08-25T15:25:22;11.27;;;3.17;;
22164;SDS011;11248;52.512;13.520;2022-08-25T15:27:48;5.30;;;2.88;;
22164;SDS011;11248;52.512;13.520;2022-08-25T15:30:14;5.22;;;2.85;;
22164;SDS011;11248;52.512;13.520;2022-08-25T15:32:40;7.22;;;3.38;;
22164;SDS011;11248;52.512;13.520;2022-08-25T15:35:06;11.82;;;3.65;;
22164;SDS011;11248;52.512;13.520;2022-08-25T15:37:33;5.13;;;2.65;;
22164;SDS011;11248;52.512;13.520;2022-08-25T15:39:59;10.20;;;3.40;;
22164;SDS011;11248;52.512;13.520;2022-08-25T15:42:26;8.38;;;3.47;;
22164;SDS011;11248;52.512;13.520;2022-08-25T15:44:52;14.45;;;3.72;;
22164;SDS011;11248;52.512;13.520;2022-08-25T15:47:20;8.35;;;2.95;;
22164;SDS011;11248;52.512;13.520;2022-08-25T15:49:46;8.50;;;3.33;;
22164;SDS011;11248;52.512;13.520;2022-08-25T15:52:12;5.60;;;2.85;;
22164;SDS011;11248;52.512;13.520;2022-08-25T15:54:38;10.75;;;3.30;;
22164;SDS011;11248;52.512;13.520;2022-08-25T15:57:04;7.22;;;2.75;;
22164;SDS011;11248;52.512;13.520;2022-08-25T15:59:30;6.88;;;3.03;;
22164;SDS011;11248;52.512;13.520;2022-08-25T16:01:56;10.38;;;3.40;;